sensor_id;sensor_type;location;lat;lon;timestamp;P1;durP1;ratioP1;P2;durP2;ratioP2
28613;SDS011;15806;53.548;9.964;2023-12-14T00:00:40;5.67;;;1.00;;
28613;SDS011;15806;53.548;9.964;2023-12-14T00:02:20;6.13;;;1.30;;
28613;SDS011;15806;53.548;9.964;2023-12-14T00:04:01;2.00;;;1.23;;
28613;SDS011;15806;53.548;9.964;2023-12-14T00:05:41;5.27;;;0.80;;
28613;SDS011;15806;53.548;9.964;2023-12-14T00:07:22;1.43;;;0.67;;
28613;SDS011;15806;53.548;9.964;2023-12-14T00:09:02;5.87;;;1.33;;
28613;SDS011;15806;53.548;9.964;2023-12-14T00:10:43;1.80;;;0.70;;
28613;SDS011;15806;53.548;9.964;2023-12-14T00:12:23;3.53;;;0.73;;
28613;SDS011;15806;53.548;9.964;2023-12-14T00:14:04;3.17;;;1.17;;
28613;SDS011;15806;53.548;9.964;2023-12-14T00:15:45;1.90;;;0.90;;
28613;SDS011;15806;53.548;9.964;2023-12-14T00:17:25;1.10;;;0.73;;
28613;SDS011;15806;53.548;9.964;2023-12-14T00:19:06;1.57;;;0.70;;
28613;SDS011;15806;53.548;9.964;2023-12-14T00:20:46;5.87;;;0.77;;
28613;SDS011;15806;53.548;9.964;2023-12-14T00:22:27;1.60;;;0.63;;
28613;SDS011;15806;53.548;9.964;2023-12-14T00:24:07;1.97;;;0.80;;
28613;SDS011;15806;53.548;9.964;2023-12-14T00:25:47;1.63;;;0.80;;
28613;SDS011;15806;53.548;9.964;2023-12-14T00:27:28;1.93;;;0.50;;
28613;SDS011;15806;53.548;9.964;2023-12-14T00:29:08;2.00;;;1.00;;
28613;SDS011;15806;53.548;9.964;2023-12-14T00:30:49;2.40;;;0.90;;
28613;SDS011;15806;53.548;9.964;2023-12-14T00:32:29;2.77;;;1.30;;
28613;SDS011;15806;53.548;9.964;2023-12-14T00:34:10;1.63;;;0.70;;
28613;SDS011;15806;53.548;9.964;2023-12-14T00:35:50;1.13;;;0.63;;
28613;SDS011;15806;53.548;9.964;2023-12-14T00:37:31;5.17;;;1.27;;
28613;SDS011;15806;53.548;9.964;2023-12-14T00:39:12;1.90;;;0.70;;
28613;SDS011;15806;53.548;9.964;2023-12-14T00:40:52;4.30;;;0.73;;
28613;SDS011;15806;53.548;9.964;2023-12-14T00:42:33;4.60;;;1.40;;
28613;SDS011;15806;53.548;9.964;2023-12-14T00:44:13;2.27;;;1.00;;
28613;SDS011;15806;53.548;9.964;2023-12-14T00:45:54;4.80;;;0.80;;
28613;SDS011;15806;53.548;9.964;2023-12-14T00:47:34;3.27;;;0.87;;
28613;SDS011;15806;53.548;9.964;2023-12-14T00:49:15;3.60;;;0.90;;
28613;SDS011;15806;53.548;9.964;2023-12-14T00:50:55;4.43;;;1.50;;
28613;SDS011;15806;53.548;9.964;2023-12-14T00:52:36;3.10;;;0.83;;
28613;SDS011;15806;53.548;9.964;2023-12-14T00:54:16;2.63;;;1.00;;
28613;SDS011;15806;53.548;9.964;2023-12-14T00:55:57;5.67;;;0.70;;
28613;SDS011;15806;53.548;9.964;2023-12-14T00:57:38;5.60;;;1.27;;
28613;SDS011;15806;53.548;9.964;2023-12-14T00:59:18;2.67;;;0.97;;
28613;SDS011;15806;53.548;9.964;2023-12-14T01:00:59;2.00;;;0.87;;
28613;SDS011;15806;53.548;9.964;2023-12-14T01:02:39;3.20;;;0.80;;
28613;SDS011;15806;53.548;9.964;2023-12-14T01:04:20;2.17;;;0.80;;
28613;SDS011;15806;53.548;9.964;2023-12-14T01:06:00;6.30;;;0.90;;
28613;SDS011;15806;53.548;9.964;2023-12-14T01:07:41;1.17;;;0.60;;
28613;SDS011;15806;53.548;9.964;2023-12-14T01:09:22;0.57;;;0.50;;
28613;SDS011;15806;53.548;9.964;2023-12-14T01:11:02;3.43;;;0.70;;
28613;SDS011;15806;53.548;9.964;2023-12-14T01:12:43;4.33;;;0.97;;
28613;SDS011;15806;53.548;9.964;2023-12-14T01:14:24;2.07;;;0.73;;
28613;SDS011;15806;53.548;9.964;2023-12-14T01:16:04;3.83;;;1.00;;
28613;SDS011;15806;53.548;9.964;2023-12-14T01:17:45;2.97;;;0.50;;
28613;SDS011;15806;53.548;9.964;2023-12-14T01:19:25;10.87;;;0.93;;
28613;SDS011;15806;53.548;9.964;2023-12-14T01:21:06;2.27;;;0.87;;
28613;SDS011;15806;53.548;9.964;2023-12-14T01:22:46;2.40;;;0.70;;
28613;SDS011;15806;53.548;9.964;2023-12-14T01:24:27;2.93;;;1.10;;
28613;SDS011;15806;53.548;9.964;2023-12-14T01:26:07;5.50;;;0.93;;
28613;SDS011;15806;53.548;9.964;2023-12-14T01:27:48;2.07;;;0.53;;
28613;SDS011;15806;53.548;9.964;2023-12-14T01:29:28;4.00;;;1.33;;
28613;SDS011;15806;53.548;9.964;2023-12-14T01:31:09;1.87;;;1.00;;
28613;SDS011;15806;53.548;9.964;2023-12-14T01:32:49;2.47;;;1.10;;
28613;SDS011;15806;53.548;9.964;2023-12-14T01:34:30;10.67;;;3.20;;
28613;SDS011;15806;53.548;9.964;2023-12-14T01:36:10;4.43;;;0.73;;
28613;SDS011;15806;53.548;9.964;2023-12-14T01:37:51;3.50;;;0.70;;
28613;SDS011;15806;53.548;9.964;2023-12-14T01:39:32;3.67;;;1.33;;
28613;SDS011;15806;53.548;9.964;2023-12-14T01:41:13;4.85;;;1.05;;
28613;SDS011;15806;53.548;9.964;2023-12-14T01:42:53;2.07;;;1.03;;
28613;SDS011;15806;53.548;9.964;2023-12-14T01:44:34;2.07;;;0.80;;
28613;SDS011;15806;53.548;9.964;2023-12-14T01:46:14;5.50;;;1.03;;
28613;SDS011;15806;53.548;9.964;2023-12-14T01:47:55;4.93;;;1.00;;
28613;SDS011;15806;53.548;9.964;2023-12-14T01:49:35;3.70;;;0.87;;
28613;SDS011;15806;53.548;9.964;2023-12-14T01:51:16;4.00;;;0.90;;
28613;SDS011;15806;53.548;9.964;2023-12-14T01:52:56;2.10;;;0.60;;
28613;SDS011;15806;53.548;9.964;2023-12-14T01:54:37;5.43;;;1.03;;
28613;SDS011;15806;53.548;9.964;2023-12-14T01:56:17;2.13;;;0.70;;
28613;SDS011;15806;53.548;9.964;2023-12-14T01:57:58;3.60;;;0.60;;
28613;SDS011;15806;53.548;9.964;2023-12-14T01:59:39;5.10;;;0.85;;
28613;SDS011;15806;53.548;9.964;2023-12-14T02:03:34;5.40;;;1.20;;
28613;SDS011;15806;53.548;9.964;2023-12-14T02:05:15;4.50;;;0.93;;
28613;SDS011;15806;53.548;9.964;2023-12-14T02:06:56;5.07;;;0.63;;
28613;SDS011;15806;53.548;9.964;2023-12-14T02:08:36;3.37;;;1.13;;
28613;SDS011;15806;53.548;9.964;2023-12-14T02:10:17;2.30;;;0.50;;
28613;SDS011;15806;53.548;9.964;2023-12-14T02:11:57;3.77;;;0.80;;
28613;SDS011;15806;53.548;9.964;2023-12-14T02:13:38;6.20;;;0.70;;
28613;SDS011;15806;53.548;9.964;2023-12-14T02:15:18;2.53;;;1.03;;
28613;SDS011;15806;53.548;9.964;2023-12-14T02:16:59;6.07;;;1.30;;
28613;SDS011;15806;53.548;9.964;2023-12-14T02:18:39;4.47;;;0.90;;
28613;SDS011;15806;53.548;9.964;2023-12-14T02:20:20;2.90;;;0.97;;
28613;SDS011;15806;53.548;9.964;2023-12-14T02:22:01;1.20;;;0.40;;
28613;SDS011;15806;53.548;9.964;2023-12-14T02:23:44;3.53;;;0.53;;
28613;SDS011;15806;53.548;9.964;2023-12-14T02:25:25;2.15;;;1.02;;
28613;SDS011;15806;53.548;9.964;2023-12-14T02:27:06;1.57;;;0.67;;
28613;SDS011;15806;53.548;9.964;2023-12-14T02:28:46;2.00;;;0.60;;
28613;SDS011;15806;53.548;9.964;2023-12-14T02:30:27;3.43;;;1.80;;
28613;SDS011;15806;53.548;9.964;2023-12-14T02:32:07;1.93;;;0.40;;
28613;SDS011;15806;53.548;9.964;2023-12-14T02:33:48;5.10;;;0.50;;
28613;SDS011;15806;53.548;9.964;2023-12-14T02:35:28;3.63;;;0.70;;
28613;SDS011;15806;53.548;9.964;2023-12-14T02:37:09;2.00;;;0.53;;
28613;SDS011;15806;53.548;9.964;2023-12-14T02:38:49;3.83;;;0.90;;
28613;SDS011;15806;53.548;9.964;2023-12-14T02:40:30;4.87;;;0.97;;
28613;SDS011;15806;53.548;9.964;2023-12-14T02:42:10;3.43;;;0.70;;
28613;SDS011;15806;53.548;9.964;2023-12-14T02:43:51;3.87;;;0.70;;
28613;SDS011;15806;53.548;9.964;2023-12-14T02:45:31;2.30;;;0.77;;
28613;SDS011;15806;53.548;9.964;2023-12-14T02:47:12;3.33;;;0.73;;
28613;SDS011;15806;53.548;9.964;2023-12-14T02:48:52;2.30;;;0.90;;
28613;SDS011;15806;53.548;9.964;2023-12-14T02:50:33;8.10;;;1.10;;
28613;SDS011;15806;53.548;9.964;2023-12-14T02:52:13;3.07;;;0.70;;
28613;SDS011;15806;53.548;9.964;2023-12-14T02:53:54;7.93;;;0.90;;
28613;SDS011;15806;53.548;9.964;2023-12-14T02:55:35;7.00;;;1.13;;
28613;SDS011;15806;53.548;9.964;2023-12-14T02:57:15;2.40;;;0.70;;
28613;SDS011;15806;53.548;9.964;2023-12-14T02:58:56;2.40;;;0.67;;
28613;SDS011;15806;53.548;9.964;2023-12-14T03:00:36;1.33;;;0.67;;
28613;SDS011;15806;53.548;9.964;2023-12-14T03:02:17;1.60;;;0.80;;
28613;SDS011;15806;53.548;9.964;2023-12-14T03:03:57;3.80;;;0.80;;
28613;SDS011;15806;53.548;9.964;2023-12-14T03:05:38;2.00;;;0.50;;
28613;SDS011;15806;53.548;9.964;2023-12-14T03:07:18;1.17;;;0.57;;
28613;SDS011;15806;53.548;9.964;2023-12-14T03:08:59;3.73;;;0.70;;
28613;SDS011;15806;53.548;9.964;2023-12-14T03:10:40;2.80;;;0.70;;
28613;SDS011;15806;53.548;9.964;2023-12-14T03:12:20;2.43;;;1.60;;
28613;SDS011;15806;53.548;9.964;2023-12-14T03:14:01;4.00;;;0.87;;
28613;SDS011;15806;53.548;9.964;2023-12-14T03:15:42;1.80;;;0.90;;
28613;SDS011;15806;53.548;9.964;2023-12-14T03:17:23;6.53;;;0.80;;
28613;SDS011;15806;53.548;9.964;2023-12-14T03:19:03;6.33;;;0.80;;
28613;SDS011;15806;53.548;9.964;2023-12-14T03:20:44;2.90;;;1.40;;
28613;SDS011;15806;53.548;9.964;2023-12-14T03:22:24;4.73;;;0.73;;
28613;SDS011;15806;53.548;9.964;2023-12-14T03:24:05;5.70;;;1.13;;
28613;SDS011;15806;53.548;9.964;2023-12-14T03:25:45;3.80;;;0.77;;
28613;SDS011;15806;53.548;9.964;2023-12-14T03:27:26;3.07;;;0.83;;
28613;SDS011;15806;53.548;9.964;2023-12-14T03:29:06;1.23;;;0.53;;
28613;SDS011;15806;53.548;9.964;2023-12-14T03:30:47;2.58;;;0.85;;
28613;SDS011;15806;53.548;9.964;2023-12-14T03:32:27;2.97;;;0.70;;
28613;SDS011;15806;53.548;9.964;2023-12-14T03:34:08;3.37;;;0.70;;
28613;SDS011;15806;53.548;9.964;2023-12-14T03:35:48;7.13;;;1.07;;
28613;SDS011;15806;53.548;9.964;2023-12-14T03:37:29;1.80;;;0.60;;
28613;SDS011;15806;53.548;9.964;2023-12-14T03:39:09;3.90;;;1.00;;
28613;SDS011;15806;53.548;9.964;2023-12-14T03:40:50;3.37;;;1.00;;
28613;SDS011;15806;53.548;9.964;2023-12-14T03:42:30;2.03;;;1.00;;
28613;SDS011;15806;53.548;9.964;2023-12-14T03:44:11;1.83;;;0.80;;
28613;SDS011;15806;53.548;9.964;2023-12-14T03:45:52;2.67;;;0.80;;
28613;SDS011;15806;53.548;9.964;2023-12-14T03:47:32;2.60;;;0.63;;
28613;SDS011;15806;53.548;9.964;2023-12-14T03:49:13;5.03;;;0.70;;
28613;SDS011;15806;53.548;9.964;2023-12-14T03:50:53;3.83;;;1.03;;
28613;SDS011;15806;53.548;9.964;2023-12-14T03:52:34;6.13;;;1.03;;
28613;SDS011;15806;53.548;9.964;2023-12-14T03:54:14;4.23;;;0.70;;
28613;SDS011;15806;53.548;9.964;2023-12-14T03:55:55;2.90;;;0.90;;
28613;SDS011;15806;53.548;9.964;2023-12-14T03:57:35;1.93;;;0.63;;
28613;SDS011;15806;53.548;9.964;2023-12-14T03:59:16;5.87;;;0.87;;
28613;SDS011;15806;53.548;9.964;2023-12-14T04:00:56;3.30;;;0.90;;
28613;SDS011;15806;53.548;9.964;2023-12-14T04:02:37;4.40;;;0.87;;
28613;SDS011;15806;53.548;9.964;2023-12-14T04:04:17;1.67;;;0.60;;
28613;SDS011;15806;53.548;9.964;2023-12-14T04:05:58;5.37;;;1.00;;
28613;SDS011;15806;53.548;9.964;2023-12-14T04:07:38;2.57;;;0.63;;
28613;SDS011;15806;53.548;9.964;2023-12-14T04:09:19;10.13;;;1.25;;
28613;SDS011;15806;53.548;9.964;2023-12-14T04:11:00;1.83;;;0.60;;
28613;SDS011;15806;53.548;9.964;2023-12-14T04:12:40;1.77;;;0.90;;
28613;SDS011;15806;53.548;9.964;2023-12-14T04:14:21;3.67;;;1.17;;
28613;SDS011;15806;53.548;9.964;2023-12-14T04:16:02;1.43;;;0.83;;
28613;SDS011;15806;53.548;9.964;2023-12-14T04:17:42;1.93;;;0.80;;
28613;SDS011;15806;53.548;9.964;2023-12-14T04:19:23;3.77;;;1.00;;
28613;SDS011;15806;53.548;9.964;2023-12-14T04:21:04;3.30;;;0.87;;
28613;SDS011;15806;53.548;9.964;2023-12-14T04:22:44;2.17;;;0.80;;
28613;SDS011;15806;53.548;9.964;2023-12-14T04:24:25;2.30;;;0.90;;
28613;SDS011;15806;53.548;9.964;2023-12-14T04:26:05;5.40;;;1.23;;
28613;SDS011;15806;53.548;9.964;2023-12-14T04:27:46;5.13;;;0.90;;
28613;SDS011;15806;53.548;9.964;2023-12-14T04:29:26;3.23;;;0.80;;
28613;SDS011;15806;53.548;9.964;2023-12-14T04:31:07;5.43;;;0.97;;
28613;SDS011;15806;53.548;9.964;2023-12-14T04:32:47;1.70;;;0.73;;
28613;SDS011;15806;53.548;9.964;2023-12-14T04:34:28;2.53;;;0.90;;
28613;SDS011;15806;53.548;9.964;2023-12-14T04:36:08;4.90;;;0.80;;
28613;SDS011;15806;53.548;9.964;2023-12-14T04:37:49;5.20;;;1.33;;
28613;SDS011;15806;53.548;9.964;2023-12-14T04:39:29;3.30;;;0.90;;
28613;SDS011;15806;53.548;9.964;2023-12-14T04:41:10;2.00;;;0.80;;
28613;SDS011;15806;53.548;9.964;2023-12-14T04:42:50;3.30;;;1.50;;
28613;SDS011;15806;53.548;9.964;2023-12-14T04:44:31;4.70;;;1.23;;
28613;SDS011;15806;53.548;9.964;2023-12-14T04:46:11;3.33;;;1.07;;
28613;SDS011;15806;53.548;9.964;2023-12-14T04:47:52;1.30;;;0.57;;
28613;SDS011;15806;53.548;9.964;2023-12-14T04:49:32;1.97;;;0.93;;
28613;SDS011;15806;53.548;9.964;2023-12-14T04:51:13;2.97;;;1.07;;
28613;SDS011;15806;53.548;9.964;2023-12-14T04:52:53;2.00;;;1.00;;
28613;SDS011;15806;53.548;9.964;2023-12-14T04:54:34;5.70;;;1.00;;
28613;SDS011;15806;53.548;9.964;2023-12-14T04:56:14;4.37;;;0.93;;
28613;SDS011;15806;53.548;9.964;2023-12-14T04:57:55;3.17;;;1.00;;
28613;SDS011;15806;53.548;9.964;2023-12-14T04:59:35;3.73;;;1.00;;
28613;SDS011;15806;53.548;9.964;2023-12-14T05:01:16;2.87;;;1.10;;
28613;SDS011;15806;53.548;9.964;2023-12-14T05:02:56;3.17;;;1.00;;
28613;SDS011;15806;53.548;9.964;2023-12-14T05:04:37;2.30;;;0.93;;
28613;SDS011;15806;53.548;9.964;2023-12-14T05:06:17;2.87;;;1.47;;
28613;SDS011;15806;53.548;9.964;2023-12-14T05:07:58;4.13;;;0.97;;
28613;SDS011;15806;53.548;9.964;2023-12-14T05:09:38;3.07;;;1.30;;
28613;SDS011;15806;53.548;9.964;2023-12-14T05:11:19;3.93;;;1.67;;
28613;SDS011;15806;53.548;9.964;2023-12-14T05:12:59;3.93;;;1.70;;
28613;SDS011;15806;53.548;9.964;2023-12-14T05:14:40;3.30;;;1.00;;
28613;SDS011;15806;53.548;9.964;2023-12-14T05:16:20;3.50;;;0.97;;
28613;SDS011;15806;53.548;9.964;2023-12-14T05:18:01;3.00;;;1.40;;
28613;SDS011;15806;53.548;9.964;2023-12-14T05:19:41;3.77;;;1.20;;
28613;SDS011;15806;53.548;9.964;2023-12-14T05:21:22;4.47;;;1.20;;
28613;SDS011;15806;53.548;9.964;2023-12-14T05:23:03;2.22;;;1.23;;
28613;SDS011;15806;53.548;9.964;2023-12-14T05:24:46;5.43;;;1.50;;
28613;SDS011;15806;53.548;9.964;2023-12-14T05:26:27;5.80;;;1.23;;
28613;SDS011;15806;53.548;9.964;2023-12-14T05:28:08;3.67;;;1.43;;
28613;SDS011;15806;53.548;9.964;2023-12-14T05:29:48;5.57;;;1.33;;
28613;SDS011;15806;53.548;9.964;2023-12-14T05:31:29;4.33;;;1.60;;
28613;SDS011;15806;53.548;9.964;2023-12-14T05:33:09;2.97;;;1.30;;
28613;SDS011;15806;53.548;9.964;2023-12-14T05:34:50;5.10;;;1.30;;
28613;SDS011;15806;53.548;9.964;2023-12-14T05:36:30;6.00;;;1.50;;
28613;SDS011;15806;53.548;9.964;2023-12-14T05:38:11;3.40;;;1.33;;
28613;SDS011;15806;53.548;9.964;2023-12-14T05:39:51;3.87;;;1.57;;
28613;SDS011;15806;53.548;9.964;2023-12-14T05:41:32;2.73;;;1.10;;
28613;SDS011;15806;53.548;9.964;2023-12-14T05:43:12;6.73;;;1.60;;
28613;SDS011;15806;53.548;9.964;2023-12-14T05:44:53;3.07;;;1.40;;
28613;SDS011;15806;53.548;9.964;2023-12-14T05:46:33;8.77;;;1.67;;
28613;SDS011;15806;53.548;9.964;2023-12-14T05:48:14;7.00;;;1.77;;
28613;SDS011;15806;53.548;9.964;2023-12-14T05:49:54;3.77;;;1.33;;
28613;SDS011;15806;53.548;9.964;2023-12-14T05:51:35;3.30;;;1.27;;
28613;SDS011;15806;53.548;9.964;2023-12-14T05:53:15;6.53;;;1.53;;
28613;SDS011;15806;53.548;9.964;2023-12-14T05:54:56;4.97;;;1.40;;
28613;SDS011;15806;53.548;9.964;2023-12-14T05:56:36;7.90;;;2.60;;
28613;SDS011;15806;53.548;9.964;2023-12-14T05:58:17;4.43;;;1.27;;
28613;SDS011;15806;53.548;9.964;2023-12-14T05:59:57;6.60;;;1.60;;
28613;SDS011;15806;53.548;9.964;2023-12-14T06:01:38;5.07;;;1.43;;
28613;SDS011;15806;53.548;9.964;2023-12-14T06:03:18;3.20;;;1.47;;
28613;SDS011;15806;53.548;9.964;2023-12-14T06:04:59;2.43;;;1.23;;
28613;SDS011;15806;53.548;9.964;2023-12-14T06:06:39;9.00;;;1.87;;
28613;SDS011;15806;53.548;9.964;2023-12-14T06:08:20;4.00;;;1.70;;
28613;SDS011;15806;53.548;9.964;2023-12-14T06:10:00;6.40;;;1.70;;
28613;SDS011;15806;53.548;9.964;2023-12-14T06:11:41;8.17;;;1.70;;
28613;SDS011;15806;53.548;9.964;2023-12-14T06:13:21;5.17;;;1.80;;
28613;SDS011;15806;53.548;9.964;2023-12-14T06:15:02;4.00;;;1.70;;
28613;SDS011;15806;53.548;9.964;2023-12-14T06:16:42;8.67;;;2.37;;
28613;SDS011;15806;53.548;9.964;2023-12-14T06:18:23;7.63;;;1.90;;
28613;SDS011;15806;53.548;9.964;2023-12-14T06:20:04;5.53;;;1.60;;
28613;SDS011;15806;53.548;9.964;2023-12-14T06:23:26;7.50;;;2.28;;
28613;SDS011;15806;53.548;9.964;2023-12-14T06:25:06;6.70;;;1.80;;
28613;SDS011;15806;53.548;9.964;2023-12-14T06:26:47;6.20;;;2.05;;
28613;SDS011;15806;53.548;9.964;2023-12-14T06:28:28;13.17;;;5.57;;
28613;SDS011;15806;53.548;9.964;2023-12-14T06:30:08;27.80;;;9.93;;
28613;SDS011;15806;53.548;9.964;2023-12-14T06:31:49;12.50;;;4.25;;
28613;SDS011;15806;53.548;9.964;2023-12-14T06:33:30;10.90;;;3.67;;
28613;SDS011;15806;53.548;9.964;2023-12-14T06:35:11;9.77;;;2.45;;
28613;SDS011;15806;53.548;9.964;2023-12-14T06:36:52;11.63;;;2.73;;
28613;SDS011;15806;53.548;9.964;2023-12-14T06:38:32;7.37;;;2.07;;
28613;SDS011;15806;53.548;9.964;2023-12-14T06:40:13;4.43;;;1.60;;
28613;SDS011;15806;53.548;9.964;2023-12-14T06:41:53;13.20;;;2.70;;
28613;SDS011;15806;53.548;9.964;2023-12-14T06:43:34;4.87;;;2.00;;
28613;SDS011;15806;53.548;9.964;2023-12-14T06:45:15;8.27;;;2.50;;
28613;SDS011;15806;53.548;9.964;2023-12-14T06:46:55;7.67;;;2.50;;
28613;SDS011;15806;53.548;9.964;2023-12-14T06:48:36;8.13;;;2.93;;
28613;SDS011;15806;53.548;9.964;2023-12-14T06:50:16;22.07;;;6.77;;
28613;SDS011;15806;53.548;9.964;2023-12-14T06:51:57;9.37;;;3.83;;
28613;SDS011;15806;53.548;9.964;2023-12-14T06:53:39;14.07;;;4.57;;
28613;SDS011;15806;53.548;9.964;2023-12-14T06:55:21;5.20;;;2.10;;
28613;SDS011;15806;53.548;9.964;2023-12-14T06:57:01;8.70;;;2.40;;
28613;SDS011;15806;53.548;9.964;2023-12-14T06:58:43;8.90;;;2.60;;
28613;SDS011;15806;53.548;9.964;2023-12-14T07:00:24;16.35;;;2.67;;
28613;SDS011;15806;53.548;9.964;2023-12-14T07:02:05;7.43;;;2.80;;
28613;SDS011;15806;53.548;9.964;2023-12-14T07:03:46;7.35;;;2.58;;
28613;SDS011;15806;53.548;9.964;2023-12-14T07:05:26;7.87;;;2.77;;
28613;SDS011;15806;53.548;9.964;2023-12-14T07:07:07;8.27;;;2.17;;
28613;SDS011;15806;53.548;9.964;2023-12-14T07:08:47;6.10;;;2.20;;
28613;SDS011;15806;53.548;9.964;2023-12-14T07:10:28;7.13;;;2.63;;
28613;SDS011;15806;53.548;9.964;2023-12-14T07:12:08;7.70;;;2.23;;
28613;SDS011;15806;53.548;9.964;2023-12-14T07:13:49;5.80;;;2.37;;
28613;SDS011;15806;53.548;9.964;2023-12-14T07:15:29;6.13;;;2.53;;
28613;SDS011;15806;53.548;9.964;2023-12-14T07:17:10;7.13;;;2.13;;
28613;SDS011;15806;53.548;9.964;2023-12-14T07:18:50;6.30;;;2.37;;
28613;SDS011;15806;53.548;9.964;2023-12-14T07:20:31;7.60;;;2.40;;
28613;SDS011;15806;53.548;9.964;2023-12-14T07:22:11;5.97;;;2.37;;
28613;SDS011;15806;53.548;9.964;2023-12-14T07:23:52;6.13;;;2.40;;
28613;SDS011;15806;53.548;9.964;2023-12-14T07:25:32;8.17;;;3.50;;
28613;SDS011;15806;53.548;9.964;2023-12-14T07:27:13;8.73;;;2.83;;
28613;SDS011;15806;53.548;9.964;2023-12-14T07:28:53;7.47;;;2.27;;
28613;SDS011;15806;53.548;9.964;2023-12-14T07:30:34;9.00;;;2.93;;
28613;SDS011;15806;53.548;9.964;2023-12-14T07:32:14;5.93;;;2.47;;
28613;SDS011;15806;53.548;9.964;2023-12-14T07:33:55;9.80;;;3.53;;
28613;SDS011;15806;53.548;9.964;2023-12-14T07:35:36;8.07;;;3.20;;
28613;SDS011;15806;53.548;9.964;2023-12-14T07:37:17;8.43;;;2.43;;
28613;SDS011;15806;53.548;9.964;2023-12-14T07:38:58;8.17;;;2.90;;
28613;SDS011;15806;53.548;9.964;2023-12-14T07:42:19;6.57;;;2.10;;
28613;SDS011;15806;53.548;9.964;2023-12-14T07:44:00;5.63;;;2.47;;
28613;SDS011;15806;53.548;9.964;2023-12-14T07:45:41;7.67;;;2.70;;
28613;SDS011;15806;53.548;9.964;2023-12-14T07:47:21;14.37;;;2.93;;
28613;SDS011;15806;53.548;9.964;2023-12-14T07:49:02;13.87;;;2.83;;
28613;SDS011;15806;53.548;9.964;2023-12-14T07:50:42;7.10;;;2.97;;
28613;SDS011;15806;53.548;9.964;2023-12-14T07:52:23;5.63;;;2.67;;
28613;SDS011;15806;53.548;9.964;2023-12-14T07:54:03;11.13;;;2.73;;
28613;SDS011;15806;53.548;9.964;2023-12-14T07:55:44;8.83;;;2.90;;
28613;SDS011;15806;53.548;9.964;2023-12-14T07:57:24;7.33;;;2.80;;
28613;SDS011;15806;53.548;9.964;2023-12-14T07:59:05;5.53;;;2.40;;
28613;SDS011;15806;53.548;9.964;2023-12-14T08:00:46;13.65;;;3.40;;
28613;SDS011;15806;53.548;9.964;2023-12-14T08:02:26;10.77;;;3.30;;
28613;SDS011;15806;53.548;9.964;2023-12-14T08:04:07;6.07;;;2.70;;
28613;SDS011;15806;53.548;9.964;2023-12-14T08:05:47;9.40;;;4.10;;
28613;SDS011;15806;53.548;9.964;2023-12-14T08:07:28;8.97;;;3.47;;
28613;SDS011;15806;53.548;9.964;2023-12-14T08:09:09;7.17;;;2.53;;
28613;SDS011;15806;53.548;9.964;2023-12-14T08:10:49;8.10;;;3.10;;
28613;SDS011;15806;53.548;9.964;2023-12-14T08:12:30;9.07;;;3.13;;
28613;SDS011;15806;53.548;9.964;2023-12-14T08:14:10;6.33;;;2.47;;
28613;SDS011;15806;53.548;9.964;2023-12-14T08:15:51;10.87;;;2.80;;
28613;SDS011;15806;53.548;9.964;2023-12-14T08:17:31;6.10;;;2.40;;
28613;SDS011;15806;53.548;9.964;2023-12-14T08:19:12;8.27;;;2.87;;
28613;SDS011;15806;53.548;9.964;2023-12-14T08:20:52;9.20;;;3.27;;
28613;SDS011;15806;53.548;9.964;2023-12-14T08:22:33;13.00;;;2.67;;
28613;SDS011;15806;53.548;9.964;2023-12-14T08:24:13;6.67;;;2.97;;
28613;SDS011;15806;53.548;9.964;2023-12-14T08:25:54;6.77;;;2.57;;
28613;SDS011;15806;53.548;9.964;2023-12-14T08:27:34;8.43;;;2.93;;
28613;SDS011;15806;53.548;9.964;2023-12-14T08:29:15;9.53;;;3.10;;
28613;SDS011;15806;53.548;9.964;2023-12-14T08:30:55;7.67;;;2.67;;
28613;SDS011;15806;53.548;9.964;2023-12-14T08:32:36;9.30;;;2.70;;
28613;SDS011;15806;53.548;9.964;2023-12-14T08:34:16;9.43;;;3.00;;
28613;SDS011;15806;53.548;9.964;2023-12-14T08:35:57;5.73;;;2.63;;
28613;SDS011;15806;53.548;9.964;2023-12-14T08:37:38;8.13;;;3.40;;
28613;SDS011;15806;53.548;9.964;2023-12-14T08:39:18;9.07;;;2.80;;
28613;SDS011;15806;53.548;9.964;2023-12-14T08:40:59;12.63;;;3.73;;
28613;SDS011;15806;53.548;9.964;2023-12-14T08:42:39;7.13;;;2.77;;
28613;SDS011;15806;53.548;9.964;2023-12-14T08:44:20;8.20;;;2.60;;
28613;SDS011;15806;53.548;9.964;2023-12-14T08:46:00;6.80;;;2.73;;
28613;SDS011;15806;53.548;9.964;2023-12-14T08:47:41;5.67;;;2.53;;
28613;SDS011;15806;53.548;9.964;2023-12-14T08:49:21;7.23;;;2.97;;
28613;SDS011;15806;53.548;9.964;2023-12-14T08:51:02;8.23;;;2.67;;
28613;SDS011;15806;53.548;9.964;2023-12-14T08:52:43;7.77;;;2.53;;
28613;SDS011;15806;53.548;9.964;2023-12-14T08:54:24;6.45;;;2.58;;
28613;SDS011;15806;53.548;9.964;2023-12-14T08:56:05;11.90;;;3.50;;
28613;SDS011;15806;53.548;9.964;2023-12-14T08:57:45;9.75;;;3.10;;
28613;SDS011;15806;53.548;9.964;2023-12-14T08:59:26;5.90;;;2.53;;
28613;SDS011;15806;53.548;9.964;2023-12-14T09:01:06;8.00;;;2.97;;
28613;SDS011;15806;53.548;9.964;2023-12-14T09:02:47;6.47;;;2.83;;
28613;SDS011;15806;53.548;9.964;2023-12-14T09:04:28;9.50;;;2.50;;
28613;SDS011;15806;53.548;9.964;2023-12-14T09:06:08;11.47;;;3.50;;
28613;SDS011;15806;53.548;9.964;2023-12-14T09:07:48;8.57;;;3.17;;
28613;SDS011;15806;53.548;9.964;2023-12-14T09:09:29;7.63;;;3.00;;
28613;SDS011;15806;53.548;9.964;2023-12-14T09:11:10;8.70;;;2.70;;
28613;SDS011;15806;53.548;9.964;2023-12-14T09:12:50;6.77;;;2.90;;
28613;SDS011;15806;53.548;9.964;2023-12-14T09:14:31;6.43;;;2.60;;
28613;SDS011;15806;53.548;9.964;2023-12-14T09:16:11;6.03;;;2.50;;
28613;SDS011;15806;53.548;9.964;2023-12-14T09:17:52;10.23;;;2.63;;
28613;SDS011;15806;53.548;9.964;2023-12-14T09:19:32;10.87;;;2.70;;
28613;SDS011;15806;53.548;9.964;2023-12-14T09:21:13;7.00;;;2.23;;
28613;SDS011;15806;53.548;9.964;2023-12-14T09:22:54;6.47;;;3.07;;
28613;SDS011;15806;53.548;9.964;2023-12-14T09:24:34;7.23;;;2.73;;
28613;SDS011;15806;53.548;9.964;2023-12-14T09:26:15;7.83;;;2.70;;
28613;SDS011;15806;53.548;9.964;2023-12-14T09:27:55;8.67;;;2.73;;
28613;SDS011;15806;53.548;9.964;2023-12-14T09:29:36;8.47;;;2.70;;
28613;SDS011;15806;53.548;9.964;2023-12-14T09:31:17;6.23;;;2.50;;
28613;SDS011;15806;53.548;9.964;2023-12-14T09:32:58;7.97;;;3.13;;
28613;SDS011;15806;53.548;9.964;2023-12-14T09:34:38;9.57;;;3.27;;
28613;SDS011;15806;53.548;9.964;2023-12-14T09:36:19;5.47;;;2.60;;
28613;SDS011;15806;53.548;9.964;2023-12-14T09:38:00;8.90;;;2.73;;
28613;SDS011;15806;53.548;9.964;2023-12-14T09:39:40;6.17;;;2.57;;
28613;SDS011;15806;53.548;9.964;2023-12-14T09:41:21;9.07;;;2.40;;
28613;SDS011;15806;53.548;9.964;2023-12-14T09:43:01;5.87;;;2.30;;
28613;SDS011;15806;53.548;9.964;2023-12-14T09:44:42;4.57;;;2.53;;
28613;SDS011;15806;53.548;9.964;2023-12-14T09:46:24;6.57;;;3.03;;
28613;SDS011;15806;53.548;9.964;2023-12-14T09:48:06;5.63;;;2.67;;
28613;SDS011;15806;53.548;9.964;2023-12-14T09:49:50;7.70;;;2.90;;
28613;SDS011;15806;53.548;9.964;2023-12-14T09:51:32;6.90;;;3.30;;
28613;SDS011;15806;53.548;9.964;2023-12-14T09:53:13;6.30;;;3.10;;
28613;SDS011;15806;53.548;9.964;2023-12-14T09:54:53;7.85;;;3.13;;
28613;SDS011;15806;53.548;9.964;2023-12-14T09:56:34;9.70;;;3.45;;
28613;SDS011;15806;53.548;9.964;2023-12-14T09:58:15;8.97;;;2.80;;
28613;SDS011;15806;53.548;9.964;2023-12-14T09:59:55;5.53;;;2.67;;
28613;SDS011;15806;53.548;9.964;2023-12-14T10:01:36;7.80;;;2.97;;
28613;SDS011;15806;53.548;9.964;2023-12-14T10:03:18;7.47;;;3.07;;
28613;SDS011;15806;53.548;9.964;2023-12-14T10:05:01;6.47;;;2.85;;
28613;SDS011;15806;53.548;9.964;2023-12-14T10:06:43;7.10;;;3.10;;
28613;SDS011;15806;53.548;9.964;2023-12-14T10:08:25;7.07;;;3.15;;
28613;SDS011;15806;53.548;9.964;2023-12-14T10:10:12;6.20;;;3.10;;
28613;SDS011;15806;53.548;9.964;2023-12-14T10:12:01;6.82;;;2.97;;